Perkins Township, Maine
Current Conditions -  °F | °C
As of 6:53 AM on Friday 19 Dec 2014 (Local Time) from KAUG Reporting Station
Overcast Overcast  
Wind Chill: 28°   Ceiling: 3200
Heat Index: 28°   Visibility: 10mi
Dew Point: 21°   Wind: 3mph
Humidity: 75%   Direction: 310°NW
Pressure: 29.85"   Gusts: NA
Location:  44.5915°N, 70.2983°W
Report Text: KAUG 191153Z AUTO 31003KT 10SM BKN032 OVC047 M02/M06 A2985 RMK AO2 SLP114 70004 T10221061 11011 21033 53022
Loading
Personal Weather Stations






























Interactive Weather Map New forecast layout! Learn more

10-Day Weather Forecast

Advertisements
Track Severe Weather on mobile